Time;durP1;ratioP1;P1;durP2;ratioP2;P2;SDS_P1;SDS_P2;PMS_P1;PMS_P2;Temp;Humidity;BMP_temperature;BMP_pressure;BME280_temperature;BME280_humidity;BME280_pressure;Samples;Min_cycle;Max_cycle;Signal;HPM_P1;HPM_P2
2022/02/19 00:01:07;;;;;;;1.57;0.70;;;8.80;57.60;8.70;98785.00;;;;4936332;28;109607;-65
2022/02/19 00:03:33;;;;;;;0.67;0.47;;;8.70;57.50;8.60;98781.00;;;;4931917;28;109926;-68
2022/02/19 00:05:59;;;;;;;0.77;0.77;;;8.70;57.60;8.50;98798.00;;;;4931117;28;94332;-66
2022/02/19 00:08:24;;;;;;;5.03;0.70;;;8.70;57.90;8.50;98805.00;;;;4918215;28;92710;-66
2022/02/19 00:10:50;;;;;;;0.40;0.40;;;8.60;57.60;8.50;98803.00;;;;4932111;28;92981;-65
2022/02/19 00:13:16;;;;;;;2.00;0.40;;;8.90;57.60;8.50;98797.00;;;;4917887;28;92711;-65
2022/02/19 00:15:42;;;;;;;1.80;0.63;;;8.60;57.80;8.40;98808.00;;;;4918156;28;105628;-66
2022/02/19 00:18:10;;;;;;;1.40;0.73;;;8.50;57.40;8.40;98820.00;;;;4917832;28;122749;-66
2022/02/19 00:20:35;;;;;;;3.00;0.40;;;8.50;57.30;8.40;98809.00;;;;4917739;28;92186;-65
2022/02/19 00:23:01;;;;;;;0.77;0.50;;;8.50;57.10;8.40;98811.00;;;;4917297;28;107988;-66
2022/02/19 00:25:27;;;;;;;4.13;0.47;;;8.50;57.10;8.40;98814.00;;;;4926530;28;119926;-65
2022/02/19 00:27:53;;;;;;;1.40;1.10;;;8.40;57.20;8.40;98827.00;;;;4935057;28;123097;-66
2022/02/19 00:30:19;;;;;;;1.43;1.03;;;8.50;56.90;8.40;98798.00;;;;4935912;28;92829;-66
2022/02/19 00:32:45;;;;;;;0.50;0.40;;;8.50;56.60;8.40;98828.00;;;;4951337;28;93029;-65
2022/02/19 00:35:11;;;;;;;1.70;0.40;;;8.50;56.80;8.30;98831.00;;;;4937097;28;93546;-65
2022/02/19 00:37:38;;;;;;;1.70;0.83;;;8.50;57.00;8.30;98848.00;;;;4934355;28;124499;-67
2022/02/19 00:40:05;;;;;;;2.73;0.63;;;8.40;56.90;8.20;98853.00;;;;4935122;28;103877;-67
2022/02/19 00:42:31;;;;;;;1.90;0.33;;;8.30;56.80;8.20;98847.00;;;;4935963;28;99174;-66
2022/02/19 00:44:56;;;;;;;2.90;0.60;;;8.30;56.60;8.30;98862.00;;;;4935231;28;121555;-66
2022/02/19 00:47:22;;;;;;;1.63;0.87;;;8.30;56.40;8.20;98878.00;;;;4934262;28;122998;-66
2022/02/19 00:49:48;;;;;;;1.80;0.80;;;8.30;56.50;8.20;98876.00;;;;4936113;28;102787;-66
2022/02/19 00:52:14;;;;;;;1.70;0.90;;;8.30;56.30;8.20;98867.00;;;;4932636;28;93825;-65
2022/02/19 00:54:39;;;;;;;1.87;0.60;;;8.20;56.10;8.20;98863.00;;;;4915777;28;93620;-66
2022/02/19 00:57:05;;;;;;;0.73;0.43;;;8.20;56.10;8.10;98902.00;;;;4917242;28;93188;-66
2022/02/19 00:59:31;;;;;;;1.10;0.63;;;8.20;55.80;8.10;98880.00;;;;4936262;28;92719;-66
2022/02/19 01:01:56;;;;;;;1.90;0.70;;;8.20;55.70;8.10;98875.00;;;;4935539;28;108045;-66
2022/02/19 01:04:22;;;;;;;4.23;1.23;;;8.20;55.50;8.00;98872.00;;;;4930635;28;93898;-65
2022/02/19 01:06:48;;;;;;;2.93;0.70;;;8.10;55.40;8.00;98854.00;;;;4915393;28;121408;-66
2022/02/19 01:09:13;;;;;;;2.83;0.63;;;8.20;55.20;7.90;98876.00;;;;4934655;28;109457;-66
2022/02/19 01:11:39;;;;;;;3.07;1.30;;;8.00;55.00;7.90;98884.00;;;;4935897;28;92945;-66
2022/02/19 01:14:07;;;;;;;1.43;0.87;;;8.00;55.10;7.90;98878.00;;;;4918664;28;94011;-66
2022/02/19 01:16:33;;;;;;;3.40;0.90;;;8.00;55.10;7.90;98897.00;;;;4916960;28;93990;-66
2022/02/19 01:18:59;;;;;;;5.67;0.97;;;8.00;55.20;7.80;98906.00;;;;4925849;28;101670;-65
2022/02/19 01:21:24;;;;;;;1.37;0.70;;;7.90;55.60;7.80;98891.00;;;;4937914;28;94646;-65
2022/02/19 01:23:50;;;;;;;1.03;0.50;;;7.90;55.50;7.80;98855.00;;;;4935240;28;105258;-65
2022/02/19 01:26:16;;;;;;;0.73;0.40;;;7.90;55.30;7.80;98906.00;;;;4923182;28;94064;-64
2022/02/19 01:28:42;;;;;;;2.33;0.93;;;7.90;54.90;7.80;98904.00;;;;4915711;28;92955;-64
2022/02/19 01:31:08;;;;;;;3.10;0.70;;;7.90;54.50;7.80;98901.00;;;;4915286;28;108933;-65
2022/02/19 01:33:34;;;;;;;0.80;0.50;;;7.90;54.60;7.80;98896.00;;;;4930168;28;100594;-65
2022/02/19 01:35:59;;;;;;;0.90;0.50;;;7.80;53.90;7.80;98912.00;;;;4935305;28;103491;-65
2022/02/19 01:38:27;;;;;;;1.00;0.60;;;7.90;54.10;7.70;98899.00;;;;4935299;28;92763;-65
2022/02/19 01:40:53;;;;;;;1.60;0.73;;;7.80;54.20;7.80;98907.00;;;;4934954;28;93768;-65
2022/02/19 01:43:19;;;;;;;2.40;0.77;;;7.90;53.70;7.70;98896.00;;;;4923869;28;123014;-64
2022/02/19 01:45:47;;;;;;;0.87;0.60;;;7.80;53.90;7.60;98894.00;;;;4924330;28;109429;-65
2022/02/19 01:48:14;;;;;;;3.70;1.07;;;7.80;53.90;7.70;98859.00;;;;4934921;28;93158;-65
2022/02/19 01:50:40;;;;;;;0.50;0.50;;;7.80;53.30;7.70;98913.00;;;;4934990;28;92759;-64
2022/02/19 01:53:06;;;;;;;2.17;0.40;;;7.80;53.10;7.70;98915.00;;;;4934708;28;114158;-64
2022/02/19 01:55:32;;;;;;;1.33;0.57;;;7.70;53.20;7.70;98928.00;;;;4934334;28;122012;-65
2022/02/19 01:57:58;;;;;;;3.17;1.00;;;7.90;53.60;7.60;98917.00;;;;4926558;28;92241;-65
2022/02/19 02:00:25;;;;;;;2.50;0.50;;;7.70;53.70;7.60;98905.00;;;;4914052;28;93037;-65
2022/02/19 02:02:52;;;;;;;3.60;0.90;;;7.70;53.40;7.60;98915.00;;;;4923311;28;92846;-65
2022/02/19 02:05:18;;;;;;;2.10;0.67;;;7.70;53.40;7.60;98906.00;;;;4933839;28;93800;-64
2022/02/19 02:07:44;;;;;;;6.07;1.57;;;7.60;53.10;7.60;98904.00;;;;4949561;28;104868;-65
2022/02/19 02:10:10;;;;;;;1.73;1.07;;;7.70;53.00;7.60;98893.00;;;;4934150;28;92643;-66
2022/02/19 02:12:36;;;;;;;4.80;0.53;;;7.70;53.30;7.60;98931.00;;;;4931248;28;96202;-65
2022/02/19 02:15:02;;;;;;;0.73;0.50;;;7.70;53.00;7.60;98945.00;;;;4934615;28;104394;-65
2022/02/19 02:17:28;;;;;;;1.53;0.80;;;7.70;53.20;7.60;98940.00;;;;4931183;28;92895;-64
2022/02/19 02:19:53;;;;;;;1.90;1.13;;;7.80;53.50;7.50;98910.00;;;;4915301;28;92786;-64
2022/02/19 02:22:20;;;;;;;3.50;1.13;;;7.60;53.60;7.60;98896.00;;;;4916801;28;92234;-65
2022/02/19 02:24:47;;;;;;;6.20;0.70;;;7.70;53.30;7.60;98920.00;;;;4913484;28;92832;-64
2022/02/19 02:27:12;;;;;;;4.63;0.77;;;7.70;53.20;7.60;98940.00;;;;4913926;28;92914;-65
2022/02/19 02:29:47;;;;;;;4.80;1.07;;;7.70;53.40;7.50;98934.00;;;;4914717;28;93899;-65
2022/02/19 02:32:13;;;;;;;3.67;0.73;;;7.60;53.50;7.60;98951.00;;;;4915281;28;94173;-65
2022/02/19 02:34:50;;;;;;;3.43;1.07;;;7.60;53.60;7.50;98917.00;;;;4914732;28;93944;-65
2022/02/19 02:37:16;;;;;;;0.73;0.60;;;7.60;53.70;7.50;98914.00;;;;4930111;28;93062;-65
2022/02/19 02:39:42;;;;;;;1.00;0.63;;;7.60;53.90;7.50;98920.00;;;;4915198;28;92659;-65
2022/02/19 02:42:08;;;;;;;3.77;1.00;;;7.50;53.90;7.50;98956.00;;;;4931487;28;93792;-65
2022/02/19 02:44:40;;;;;;;3.77;0.83;;;7.60;54.20;7.50;98951.00;;;;4934216;28;94037;-64
2022/02/19 02:47:07;;;;;;;2.73;0.73;;;7.60;54.50;7.50;98944.00;;;;4949928;28;92247;-65
2022/02/19 02:49:33;;;;;;;5.80;1.07;;;7.60;54.80;7.50;98933.00;;;;4934244;28;92812;-65
2022/02/19 02:51:59;;;;;;;0.77;0.60;;;7.50;55.00;7.40;98934.00;;;;4934351;28;92991;-65
2022/02/19 02:54:25;;;;;;;1.97;0.80;;;7.50;55.30;7.40;98952.00;;;;4934294;28;93720;-63
2022/02/19 02:56:50;;;;;;;1.37;0.70;;;7.70;55.60;7.40;98955.00;;;;4933983;28;98163;-65
2022/02/19 02:59:16;;;;;;;3.03;0.80;;;7.50;55.70;7.30;98962.00;;;;4932519;28;108574;-65
2022/02/19 03:01:41;;;;;;;1.27;0.60;;;7.50;55.90;7.30;98964.00;;;;4934073;28;121865;-65
2022/02/19 03:04:07;;;;;;;1.50;1.00;;;7.40;55.80;7.30;98972.00;;;;4936739;28;122574;-65
2022/02/19 03:06:33;;;;;;;2.93;0.70;;;7.40;56.30;7.20;98945.00;;;;4937148;28;109061;-65
2022/02/19 03:08:58;;;;;;;2.80;0.57;;;7.30;56.30;7.20;98992.00;;;;4926663;28;108259;-65
2022/02/19 03:11:24;;;;;;;1.70;0.80;;;7.30;56.40;7.10;98985.00;;;;4917498;28;93232;-65
2022/02/19 03:13:50;;;;;;;0.77;0.47;;;7.30;56.60;7.10;98980.00;;;;4917377;28;120107;-65
2022/02/19 03:16:15;;;;;;;2.00;0.70;;;7.50;56.90;7.10;98987.00;;;;4917217;28;110328;-65
2022/02/19 03:18:41;;;;;;;0.63;0.47;;;7.20;56.80;7.00;98978.00;;;;4925563;28;94575;-65
2022/02/19 03:21:07;;;;;;;0.50;0.50;;;7.20;56.80;7.10;99020.00;;;;4918239;28;123085;-64
2022/02/19 03:23:33;;;;;;;1.10;0.40;;;7.20;56.70;7.10;99018.00;;;;4918021;28;120232;-65
2022/02/19 03:25:58;;;;;;;2.40;0.60;;;7.20;56.90;7.10;99007.00;;;;4917679;28;92813;-66
2022/02/19 03:28:24;;;;;;;0.73;0.53;;;7.40;57.20;7.10;99019.00;;;;4918678;28;96959;-66
2022/02/19 03:30:50;;;;;;;3.27;0.73;;;7.20;57.20;7.10;99003.00;;;;4920966;28;121091;-64
2022/02/19 03:33:16;;;;;;;1.60;0.77;;;7.90;57.60;7.00;99012.00;;;;4928449;28;123523;-65
2022/02/19 03:35:41;;;;;;;0.83;0.50;;;7.10;57.40;7.00;99018.00;;;;4948506;28;111552;-65
2022/02/19 03:38:07;;;;;;;3.83;0.77;;;7.10;57.10;7.00;99034.00;;;;4918621;28;93021;-64
2022/02/19 03:40:33;;;;;;;0.30;0.30;;;7.10;57.20;7.00;99037.00;;;;4916775;28;122314;-65
2022/02/19 03:43:01;;;;;;;1.37;0.37;;;7.10;57.20;7.10;99047.00;;;;4919057;28;93957;-65
2022/02/19 03:45:27;;;;;;;1.47;0.67;;;7.20;57.00;7.00;99044.00;;;;4928006;28;92982;-65
2022/02/19 03:47:53;;;;;;;0.50;0.20;;;7.10;57.30;7.00;99066.00;;;;4935134;28;92830;-64
2022/02/19 03:50:19;;;;;;;2.57;0.47;;;7.10;57.10;7.10;99055.00;;;;4934494;28;93310;-65
2022/02/19 03:52:46;;;;;;;2.57;0.67;;;7.60;57.10;7.10;99063.00;;;;4929905;28;123442;-65
2022/02/19 03:55:12;;;;;;;1.30;0.70;;;7.70;57.10;7.10;99067.00;;;;4917609;28;93036;-64
2022/02/19 03:57:38;;;;;;;2.07;0.33;;;7.20;56.80;7.00;99058.00;;;;4918168;28;92759;-64
2022/02/19 04:00:08;;;;;;;8.63;0.50;;;7.50;57.30;6.90;99059.00;;;;4917111;28;92413;-66
2022/02/19 04:02:38;;;;;;;2.73;0.80;;;7.10;57.20;6.90;99063.00;;;;4917690;28;92702;-66
2022/02/19 04:05:08;;;;;;;4.50;0.60;;;7.70;57.70;6.70;99075.00;;;;4933563;28;92877;-65
2022/02/19 04:07:34;;;;;;;2.43;0.53;;;6.90;57.60;6.70;99083.00;;;;4937080;28;93809;-66
2022/02/19 04:10:00;;;;;;;1.03;0.43;;;7.00;57.60;6.70;99092.00;;;;4935557;28;120770;-65
2022/02/19 04:12:26;;;;;;;2.13;0.80;;;7.40;57.70;6.70;99075.00;;;;4934543;28;122274;-65
2022/02/19 04:14:52;;;;;;;2.00;0.60;;;6.80;57.40;6.60;99056.00;;;;4936570;28;93025;-66
2022/02/19 04:17:18;;;;;;;1.43;0.53;;;6.80;58.20;6.60;99091.00;;;;4933884;28;107362;-66
2022/02/19 04:19:44;;;;;;;2.13;0.70;;;6.80;57.60;6.50;99079.00;;;;4916541;28;110119;-66
2022/02/19 04:22:10;;;;;;;1.73;0.70;;;6.70;57.60;6.50;99094.00;;;;4926231;28;93686;-66
2022/02/19 04:24:35;;;;;;;1.93;0.60;;;6.60;57.70;6.40;99110.00;;;;4920196;28;110533;-66
2022/02/19 04:27:01;;;;;;;0.83;0.40;;;6.60;58.00;6.30;99116.00;;;;4916897;28;108391;-65
2022/02/19 04:29:27;;;;;;;0.20;0.20;;;6.50;58.30;6.30;99120.00;;;;4916152;28;122450;-65
2022/02/19 04:31:55;;;;;;;5.67;0.70;;;6.60;58.40;6.20;99123.00;;;;4925142;28;96806;-65
2022/02/19 04:34:22;;;;;;;1.33;0.63;;;6.50;58.50;6.20;99121.00;;;;4936813;28;92820;-66
2022/02/19 04:36:48;;;;;;;1.03;0.40;;;6.40;58.40;6.20;99159.00;;;;4936789;28;93070;-66
2022/02/19 04:39:19;;;;;;;0.33;0.33;;;6.40;58.70;6.20;99133.00;;;;4918472;28;93166;-65
2022/02/19 04:41:45;;;;;;;0.60;0.30;;;6.90;59.10;6.20;99163.00;;;;4916500;28;93801;-65
2022/02/19 04:44:10;;;;;;;2.83;0.43;;;6.30;59.00;6.20;99136.00;;;;4917484;28;92794;-65
2022/02/19 04:46:36;;;;;;;1.97;0.47;;;6.30;59.10;6.20;99139.00;;;;4917786;28;92929;-66
2022/02/19 04:49:02;;;;;;;1.00;0.23;;;6.80;59.10;6.20;99119.00;;;;4917568;28;92932;-67
2022/02/19 04:51:28;;;;;;;0.63;0.50;;;6.60;58.90;6.20;99159.00;;;;4915796;28;108610;-65
2022/02/19 04:53:54;;;;;;;2.87;0.50;;;6.30;58.90;6.20;99161.00;;;;4917800;28;92995;-66
2022/02/19 04:56:19;;;;;;;1.37;0.20;;;6.90;59.40;6.10;99179.00;;;;4916198;28;93726;-65
2022/02/19 04:58:47;;;;;;;6.23;0.87;;;6.30;59.20;6.10;99195.00;;;;4918065;28;124168;-65
2022/02/19 05:01:13;;;;;;;0.73;0.23;;;6.10;59.10;6.10;99177.00;;;;4935348;28;93750;-67
2022/02/19 05:03:39;;;;;;;1.33;0.40;;;6.20;59.30;6.10;99200.00;;;;4936447;28;92741;-66
2022/02/19 05:06:04;;;;;;;1.87;0.60;;;6.50;59.80;6.10;99185.00;;;;4948194;28;108604;-65
2022/02/19 05:08:31;;;;;;;1.03;0.73;;;6.60;59.90;6.00;99203.00;;;;4924146;28;122917;-66
2022/02/19 05:10:56;;;;;;;3.47;0.90;;;6.10;59.90;6.00;99229.00;;;;4934349;28;103050;-65
2022/02/19 05:13:22;;;;;;;1.10;0.30;;;6.20;60.20;6.00;99217.00;;;;4924449;28;109616;-65
2022/02/19 05:15:49;;;;;;;1.43;0.70;;;6.80;60.80;6.00;99207.00;;;;4916623;28;92957;-66
2022/02/19 05:18:14;;;;;;;1.10;0.27;;;6.10;60.10;6.00;99208.00;;;;4923202;28;106965;-66
2022/02/19 05:20:41;;;;;;;2.27;0.53;;;6.10;59.90;6.10;99201.00;;;;4934464;28;93901;-66
2022/02/19 05:23:07;;;;;;;2.63;0.43;;;6.10;59.90;6.10;99215.00;;;;4936253;28;92850;-65
2022/02/19 05:25:33;;;;;;;1.80;0.40;;;6.80;60.40;6.10;99233.00;;;;4920621;28;92858;-65
2022/02/19 05:27:59;;;;;;;0.47;0.30;;;6.50;59.90;6.10;99229.00;;;;4930317;28;110378;-66
2022/02/19 05:30:25;;;;;;;4.83;0.60;;;6.50;59.70;6.10;99225.00;;;;4934397;28;121856;-66
2022/02/19 05:32:51;;;;;;;1.53;0.80;;;6.20;59.20;6.10;99235.00;;;;4929002;28;92764;-66
2022/02/19 05:35:17;;;;;;;1.00;0.10;;;6.80;59.50;6.10;99221.00;;;;4915969;28;108188;-66
2022/02/19 05:37:43;;;;;;;2.47;0.27;;;6.30;59.10;6.10;99197.00;;;;4916616;28;93067;-65
2022/02/19 05:40:09;;;;;;;1.00;0.40;;;6.40;59.00;6.20;99263.00;;;;4915091;28;92783;-66
2022/02/19 05:42:35;;;;;;;0.63;0.50;;;6.30;59.10;6.10;99259.00;;;;4916921;28;92985;-66
2022/02/19 05:45:00;;;;;;;0.97;0.47;;;6.80;59.50;6.10;99276.00;;;;4914510;28;109753;-66
2022/02/19 05:47:26;;;;;;;0.80;0.30;;;6.20;59.00;6.10;99254.00;;;;4916236;28;98691;-65
2022/02/19 05:49:52;;;;;;;0.43;0.33;;;6.30;58.90;6.10;99237.00;;;;4916000;28;121817;-66
2022/02/19 05:52:18;;;;;;;1.23;0.50;;;6.30;58.70;6.10;99263.00;;;;4934819;28;104054;-66
2022/02/19 05:54:44;;;;;;;0.83;0.40;;;7.00;59.00;6.20;99293.00;;;;4926920;28;108912;-65
2022/02/19 05:57:10;;;;;;;2.27;0.60;;;7.00;59.00;6.20;99284.00;;;;4915424;28;116112;-66
2022/02/19 05:59:36;;;;;;;2.30;0.60;;;6.40;58.80;6.20;99310.00;;;;4915844;28;93708;-66
2022/02/19 06:02:03;;;;;;;1.10;0.43;;;6.30;58.90;6.10;99294.00;;;;4931046;28;92355;-66
2022/02/19 06:04:29;;;;;;;2.93;0.70;;;6.30;58.80;6.20;99298.00;;;;4913760;28;95596;-66
2022/02/19 06:06:55;;;;;;;2.70;0.30;;;6.30;58.80;6.10;99319.00;;;;4937890;28;95723;-66
2022/02/19 06:09:20;;;;;;;1.23;0.53;;;7.00;59.00;6.10;99323.00;;;;4929966;28;122116;-66
2022/02/19 06:11:46;;;;;;;3.90;0.50;;;6.20;59.00;6.10;99322.00;;;;4915782;28;109148;-66
2022/02/19 06:14:12;;;;;;;2.23;0.43;;;6.70;59.30;6.00;99341.00;;;;4920877;28;93132;-66
2022/02/19 06:16:38;;;;;;;0.97;0.50;;;6.60;59.60;6.00;99359.00;;;;4933723;28;93230;-65
2022/02/19 06:19:04;;;;;;;0.17;0.17;;;6.30;59.80;6.10;99349.00;;;;4930058;28;122658;-66
2022/02/19 06:21:30;;;;;;;2.73;0.63;;;6.10;59.70;6.10;99380.00;;;;4932036;28;94333;-66
2022/02/19 06:23:55;;;;;;;4.00;0.40;;;6.20;60.90;6.00;99378.00;;;;4933442;28;109032;-66
2022/02/19 06:26:21;;;;;;;2.10;0.90;;;6.20;60.70;6.00;99375.00;;;;4931420;28;121310;-67
2022/02/19 06:28:47;;;;;;;1.90;0.30;;;7.00;61.50;6.00;99370.00;;;;4929502;28;121928;-66
2022/02/19 06:31:14;;;;;;;0.60;0.40;;;6.10;61.60;6.00;99382.00;;;;4926303;28;109152;-65
2022/02/19 06:33:39;;;;;;;2.27;0.60;;;6.00;62.00;6.00;99401.00;;;;4925132;28;95233;-65
2022/02/19 06:36:05;;;;;;;1.80;0.57;;;6.10;62.50;6.00;99411.00;;;;4923632;28;111025;-66
2022/02/19 06:38:32;;;;;;;1.78;0.88;;;6.20;62.80;6.00;99408.00;;;;4065148;28;10001727;-66
2022/02/19 06:40:58;;;;;;;0.97;0.40;;;6.10;63.10;6.10;99391.00;;;;4926790;28;93186;-66
2022/02/19 06:43:24;;;;;;;8.90;1.20;;;6.10;62.50;6.10;99415.00;;;;4927961;28;92943;-66
2022/02/19 06:45:50;;;;;;;0.50;0.50;;;6.20;62.40;6.10;99440.00;;;;4928971;28;93165;-64
2022/02/19 06:48:15;;;;;;;1.20;0.70;;;6.90;63.00;6.20;99422.00;;;;4921228;28;93076;-65
2022/02/19 06:50:41;;;;;;;3.50;0.37;;;6.30;62.20;6.20;99432.00;;;;4927879;28;92273;-66
2022/02/19 06:53:07;;;;;;;1.20;0.43;;;6.30;62.00;6.20;99449.00;;;;4927039;28;93364;-67
2022/02/19 06:55:32;;;;;;;2.07;0.47;;;6.30;61.80;6.20;99464.00;;;;4926755;28;108835;-66
2022/02/19 06:57:58;;;;;;;4.40;0.90;;;6.30;61.60;6.20;99451.00;;;;4921721;28;94084;-65
2022/02/19 07:00:24;;;;;;;0.83;0.37;;;6.40;61.70;6.30;99466.00;;;;4928226;28;94514;-65
2022/02/19 07:02:50;;;;;;;1.70;0.70;;;6.90;62.10;6.30;99465.00;;;;4924535;28;93102;-66
2022/02/19 07:05:16;;;;;;;0.67;0.50;;;6.40;61.60;6.30;99478.00;;;;4929177;28;92867;-65
2022/02/19 07:07:41;;;;;;;0.30;0.20;;;6.30;61.50;6.30;99459.00;;;;4926500;28;123076;-66
2022/02/19 07:10:09;;;;;;;1.00;0.40;;;6.40;61.80;6.40;99493.00;;;;4928463;28;93499;-65
2022/02/19 07:12:35;;;;;;;0.30;0.30;;;6.50;61.60;6.40;99513.00;;;;4927847;28;93075;-66
2022/02/19 07:15:01;;;;;;;0.60;0.40;;;6.40;61.70;6.40;99501.00;;;;4928924;28;92363;-66
2022/02/19 07:17:26;;;;;;;1.57;0.50;;;6.50;62.00;6.40;99517.00;;;;4926621;28;123134;-66
2022/02/19 07:19:52;;;;;;;1.70;0.60;;;6.50;62.00;6.40;99527.00;;;;4933298;28;121900;-66
2022/02/19 07:22:17;;;;;;;0.70;0.50;;;6.40;61.90;6.40;99541.00;;;;4931907;28;109520;-65
2022/02/19 07:24:43;;;;;;;3.43;0.93;;;6.40;62.10;6.40;99541.00;;;;4926298;28;108767;-66
2022/02/19 07:27:09;;;;;;;1.70;0.70;;;6.60;62.30;6.40;99543.00;;;;4927110;28;96921;-65
2022/02/19 07:29:35;;;;;;;0.43;0.43;;;6.50;62.50;6.50;99554.00;;;;4928826;28;93204;-65
2022/02/19 07:32:01;;;;;;;1.27;0.83;;;6.90;62.60;6.50;99572.00;;;;4927288;28;110193;-65
2022/02/19 07:34:27;;;;;;;0.93;0.50;;;6.60;62.40;6.50;99561.00;;;;4923043;28;96153;-65
2022/02/19 07:36:53;;;;;;;0.80;0.63;;;7.00;62.50;6.50;99573.00;;;;4928277;28;93983;-65
2022/02/19 07:39:28;;;;;;;3.80;0.70;;;6.60;62.00;6.50;99579.00;;;;4921284;28;93906;-66
2022/02/19 07:41:53;;;;;;;2.83;0.83;;;6.90;61.50;6.50;99578.00;;;;4941125;28;95802;-65
2022/02/19 07:44:19;;;;;;;0.90;0.70;;;7.10;61.90;6.50;99584.00;;;;4927966;28;107671;-66
2022/02/19 07:46:45;;;;;;;0.73;0.57;;;6.60;61.60;6.50;99601.00;;;;4928848;28;123253;-66
2022/02/19 08:00:08;;;;;;;1.13;0.50;;;6.60;61.90;6.60;99641.00;;;;4927620;28;93102;-65
2022/02/19 08:02:33;;;;;;;0.37;0.20;;;6.70;60.70;6.60;99661.00;;;;4923310;28;101852;-66
2022/02/19 08:04:59;;;;;;;1.27;0.50;;;6.80;60.60;6.60;99653.00;;;;4930277;28;107498;-65
2022/02/19 08:07:25;;;;;;;2.67;0.63;;;6.70;60.60;6.60;99682.00;;;;4924607;28;124286;-65
2022/02/19 08:09:50;;;;;;;3.57;0.80;;;6.70;60.70;6.60;99671.00;;;;4925671;28;121853;-65
2022/02/19 08:12:16;;;;;;;4.60;1.00;;;6.80;60.90;6.60;99700.00;;;;4943064;28;110000;-66
2022/02/19 08:14:42;;;;;;;0.60;0.33;;;6.60;60.70;6.60;99695.00;;;;4923623;28;108789;-66
2022/02/19 08:17:07;;;;;;;1.50;0.37;;;6.90;60.80;6.60;99668.00;;;;4929544;28;122639;-65
2022/02/19 08:19:33;;;;;;;0.73;0.40;;;6.60;60.70;6.60;99697.00;;;;4924286;28;120583;-65
2022/02/19 08:21:59;;;;;;;4.50;0.80;;;6.70;60.50;6.60;99700.00;;;;4931675;28;110725;-66
2022/02/19 08:24:24;;;;;;;3.67;0.87;;;6.70;60.80;6.60;99721.00;;;;4931412;28;92886;-67
2022/02/19 08:26:50;;;;;;;1.27;0.60;;;6.70;60.90;6.60;99735.00;;;;4930118;28;103401;-66
2022/02/19 08:29:16;;;;;;;2.23;0.80;;;6.70;61.30;6.60;99724.00;;;;4930931;28;93265;-65
2022/02/19 08:31:41;;;;;;;5.10;0.50;;;6.60;60.80;6.60;99744.00;;;;4929705;28;110437;-65
2022/02/19 08:34:07;;;;;;;1.33;0.70;;;7.20;61.30;6.50;99724.00;;;;4928934;28;92884;-65
2022/02/19 08:36:33;;;;;;;4.23;0.80;;;6.70;61.10;6.50;99762.00;;;;4927148;28;122766;-65
2022/02/19 08:38:59;;;;;;;1.67;0.90;;;6.70;61.10;6.60;99769.00;;;;4927965;28;122565;-65
2022/02/19 08:41:24;;;;;;;2.83;0.60;;;6.70;61.70;6.60;99752.00;;;;4930260;28;93320;-66
2022/02/19 08:43:50;;;;;;;0.40;0.40;;;6.70;61.30;6.60;99759.00;;;;4930105;28;92873;-66
2022/02/19 08:46:17;;;;;;;0.47;0.40;;;6.60;61.10;6.60;99760.00;;;;4930051;28;114728;-66
2022/02/19 08:48:43;;;;;;;0.53;0.53;;;7.10;61.50;6.60;99772.00;;;;4929264;28;105165;-66
2022/02/19 08:51:09;;;;;;;0.77;0.50;;;6.70;61.70;6.60;99788.00;;;;4930774;28;92924;-67
2022/02/19 08:53:36;;;;;;;0.43;0.40;;;6.70;62.60;6.60;99782.00;;;;4929931;28;108983;-66
2022/02/19 08:56:02;;;;;;;2.37;0.43;;;6.70;62.80;6.60;99758.00;;;;4930170;28;93637;-66
2022/02/19 08:58:27;;;;;;;5.37;0.53;;;6.70;62.50;6.60;99796.00;;;;4930056;28;93256;-66
2022/02/19 09:00:53;;;;;;;2.03;0.83;;;7.10;62.70;6.60;99798.00;;;;4928016;28;94027;-66
2022/02/19 09:03:19;;;;;;;1.13;0.47;;;7.30;63.10;6.60;99805.00;;;;4930104;28;93013;-66
2022/02/19 09:05:46;;;;;;;1.50;0.63;;;6.70;62.80;6.60;99810.00;;;;4927074;28;117716;-66
2022/02/19 09:08:12;;;;;;;2.97;0.80;;;7.20;63.30;6.70;99835.00;;;;4929385;28;93821;-66
2022/02/19 09:10:38;;;;;;;1.67;0.47;;;6.70;63.80;6.70;99823.00;;;;4929091;28;99120;-66
2022/02/19 09:13:04;;;;;;;2.10;0.50;;;6.80;63.50;6.70;99824.00;;;;4930289;28;93170;-66
2022/02/19 09:15:30;;;;;;;1.00;0.43;;;7.30;63.50;6.70;99842.00;;;;4936643;28;95929;-65
2022/02/19 09:17:57;;;;;;;0.83;0.63;;;6.80;63.30;6.70;99835.00;;;;4928650;28;92559;-65
2022/02/19 09:20:22;;;;;;;3.73;0.50;;;6.80;63.30;6.70;99821.00;;;;4922245;28;110266;-66
2022/02/19 09:22:49;;;;;;;1.10;0.50;;;7.40;63.40;6.70;99867.00;;;;4931330;28;93132;-66
2022/02/19 09:25:16;;;;;;;4.30;0.57;;;6.80;63.00;6.70;99849.00;;;;4929602;28;94324;-66
2022/02/19 09:27:42;;;;;;;1.03;0.43;;;6.90;63.60;6.70;99870.00;;;;4925074;28;94955;-66
2022/02/19 09:30:10;;;;;;;1.00;0.57;;;6.80;64.00;6.80;99868.00;;;;4929055;28;93029;-66
2022/02/19 09:32:36;;;;;;;3.33;0.70;;;6.80;64.80;6.80;99871.00;;;;4922611;28;93211;-65
2022/02/19 09:35:03;;;;;;;1.23;0.67;;;6.90;64.20;6.80;99881.00;;;;4927165;28;93403;-66
2022/02/19 09:37:29;;;;;;;0.60;0.47;;;6.80;64.00;6.80;99884.00;;;;4921280;28;114189;-65
2022/02/19 09:39:58;;;;;;;3.87;0.77;;;6.80;64.30;6.80;99883.00;;;;4921660;28;110250;-66
2022/02/19 09:42:24;;;;;;;0.40;0.27;;;7.00;64.80;6.70;99898.00;;;;4933918;28;107482;-66
2022/02/19 09:44:52;;;;;;;4.27;0.80;;;6.90;65.30;6.80;99893.00;;;;4929322;28;94155;-66
2022/02/19 09:47:25;;;;;;;1.10;0.50;;;6.90;65.00;6.70;99913.00;;;;4928219;28;92908;-66
2022/02/19 09:49:52;;;;;;;4.77;0.80;;;6.90;64.60;6.80;99906.00;;;;4922672;28;95163;-66
2022/02/19 09:52:18;;;;;;;1.30;0.80;;;6.90;64.60;6.80;99929.00;;;;4927273;28;92906;-66
2022/02/19 09:54:44;;;;;;;2.17;0.83;;;6.90;65.10;6.70;99931.00;;;;4928861;28;100287;-65
2022/02/19 09:57:09;;;;;;;0.50;0.50;;;6.90;65.20;6.70;99903.00;;;;4925337;28;122635;-66
2022/02/19 09:59:35;;;;;;;1.80;0.60;;;6.90;65.00;6.80;99942.00;;;;4924547;28;109763;-66
2022/02/19 10:02:04;;;;;;;1.07;0.93;;;6.90;64.80;6.80;99929.00;;;;4928398;28;108866;-66
2022/02/19 10:04:30;;;;;;;3.53;0.73;;;6.90;65.00;6.80;99942.00;;;;4929061;28;94199;-65
2022/02/19 10:07:14;;;;;;;1.70;0.80;;;6.90;64.20;6.90;99948.00;;;;4929571;28;93272;-65
2022/02/19 10:09:42;;;;;;;1.80;0.80;;;7.00;64.20;7.00;99961.00;;;;4910342;28;93391;-65
2022/02/19 10:12:14;;;;;;;1.50;0.80;;;7.00;64.10;7.00;99944.00;;;;4930346;28;92961;-65
2022/02/19 10:14:43;;;;;;;0.77;0.63;;;7.10;63.70;7.10;99958.00;;;;4928587;28;94507;-65
2022/02/19 10:17:17;;;;;;;2.37;0.80;;;7.20;63.50;7.20;99957.00;;;;4929439;28;94820;-65
2022/02/19 10:20:02;;;;;;;4.23;1.70;;;7.20;63.40;7.20;99980.00;;;;4925325;28;92934;-65
2022/02/19 10:22:34;;;;;;;0.67;0.40;;;7.30;62.90;7.30;99995.00;;;;4921501;28;92936;-65
2022/02/19 10:25:09;;;;;;;1.10;0.90;;;7.30;62.40;7.40;99988.00;;;;4926374;28;93455;-65
2022/02/19 10:27:44;;;;;;;1.20;0.83;;;7.40;62.20;7.40;100011.00;;;;4920640;28;93188;-65
2022/02/19 10:30:12;;;;;;;2.30;0.93;;;7.40;62.00;7.40;99994.00;;;;4928349;28;92891;-66
2022/02/19 10:32:57;;;;;;;4.83;0.87;;;7.50;61.50;7.50;100002.00;;;;4924110;28;92297;-66
2022/02/19 10:35:38;;;;;;;0.53;0.33;;;7.60;61.30;7.50;99990.00;;;;4927287;28;94108;-65
2022/02/19 10:38:14;;;;;;;0.30;0.30;;;7.60;61.00;7.50;100007.00;;;;4924718;28;93234;-65
2022/02/19 10:40:46;;;;;;;3.33;1.00;;;7.60;60.40;7.60;100013.00;;;;4927816;28;93564;-65
2022/02/19 10:43:30;;;;;;;1.77;0.80;;;7.60;60.20;7.60;100021.00;;;;4917896;28;93320;-65
2022/02/19 10:45:59;;;;;;;5.37;0.70;;;7.60;59.90;7.60;100031.00;;;;4921895;28;93975;-65
2022/02/19 10:48:30;;;;;;;1.07;0.53;;;7.70;60.40;7.60;100020.00;;;;4928458;28;93583;-66
2022/02/19 10:51:11;;;;;;;0.63;0.50;;;7.70;60.00;7.60;100035.00;;;;4923021;28;93218;-65
2022/02/19 10:53:38;;;;;;;0.90;0.50;;;7.70;60.00;7.60;100002.00;;;;4923259;28;93325;-66
2022/02/19 10:56:17;;;;;;;1.03;0.60;;;7.70;59.50;7.50;100028.00;;;;4926570;28;93121;-65
2022/02/19 10:59:08;;;;;;;1.33;0.60;;;7.60;59.60;7.50;100053.00;;;;4928465;28;92979;-65
2022/02/19 11:01:51;;;;;;;1.43;0.70;;;7.60;59.50;7.50;100058.00;;;;4928426;28;92821;-65
2022/02/19 11:04:20;;;;;;;2.27;0.70;;;7.60;59.80;7.50;100074.00;;;;4926580;28;92843;-65
2022/02/19 11:06:47;;;;;;;2.73;0.93;;;7.80;59.40;7.50;100065.00;;;;4919790;28;94165;-64
2022/02/19 11:09:14;;;;;;;2.23;0.63;;;7.60;59.30;7.50;100069.00;;;;4927701;28;93785;-65
2022/02/19 11:11:43;;;;;;;1.10;0.60;;;7.60;59.00;7.50;100084.00;;;;4928140;28;92641;-66
2022/02/19 11:14:11;;;;;;;1.73;0.73;;;7.60;58.30;7.50;100074.00;;;;4928351;28;93703;-65
2022/02/19 11:16:53;;;;;;;1.70;0.37;;;7.60;58.40;7.50;100079.00;;;;4927438;28;94108;-65